Time;durP1;ratioP1;P1;durP2;ratioP2;P2;SDS_P1;SDS_P2;PMS_P1;PMS_P2;Temp;Humidity;BMP_temperature;BMP_pressure;BME280_temperature;BME280_humidity;BME280_pressure;Samples;Min_cycle;Max_cycle;Signal;HPM_P1;HPM_P2
2023/11/09 00:01:46;;;;;;;14.70;7.40;;;;;;;8.92;100.00;100166.66;4995399;28;20070;-74
2023/11/09 00:04:12;;;;;;;11.38;6.93;;;;;;;8.90;100.00;100147.41;4996008;28;20030;-76
2023/11/09 00:06:37;;;;;;;10.82;7.00;;;;;;;8.91;100.00;100160.53;4995668;28;20088;-75
2023/11/09 00:09:06;;;;;;;9.65;6.80;;;;;;;8.92;100.00;100156.03;4995755;28;20034;-75
2023/11/09 00:11:31;;;;;;;12.60;7.35;;;;;;;8.92;100.00;100162.19;4995684;28;20030;-76
2023/11/09 00:13:57;;;;;;;16.90;8.63;;;;;;;8.93;100.00;100152.44;4995511;28;20109;-76
2023/11/09 00:16:22;;;;;;;11.27;8.27;;;;;;;8.94;100.00;100149.63;4995326;28;20466;-76
2023/11/09 00:18:48;;;;;;;13.18;8.48;;;;;;;8.95;100.00;100151.28;4993997;28;20058;-76
2023/11/09 00:21:14;;;;;;;13.40;8.60;;;;;;;8.95;100.00;100143.31;4993826;28;20034;-77
2023/11/09 00:23:39;;;;;;;12.60;8.63;;;;;;;8.99;100.00;100150.00;4995370;28;20121;-76
2023/11/09 00:26:06;;;;;;;12.05;8.38;;;;;;;8.99;100.00;100138.56;4962086;28;20026;-76
2023/11/09 00:28:31;;;;;;;10.10;8.40;;;;;;;8.99;100.00;100142.06;4994182;28;20035;-75
2023/11/09 00:30:57;;;;;;;14.52;8.75;;;;;;;9.00;100.00;100153.50;4995485;28;20034;-75
2023/11/09 00:33:22;;;;;;;14.70;7.72;;;;;;;9.00;100.00;100143.72;4995199;28;20038;-77
2023/11/09 00:35:48;;;;;;;12.52;8.32;;;;;;;8.99;100.00;100151.84;4995380;28;20126;-75
2023/11/09 00:38:16;;;;;;;9.32;6.97;;;;;;;9.01;100.00;100144.56;4995462;28;20063;-76
2023/11/09 00:40:42;;;;;;;9.55;6.07;;;;;;;9.02;100.00;100142.72;4995361;28;20041;-75
2023/11/09 00:43:11;;;;;;;5.82;3.55;;;;;;;8.97;100.00;100151.97;4995312;28;20026;-76
2023/11/09 00:45:37;;;;;;;5.20;2.22;;;;;;;8.91;100.00;100149.91;4994524;28;20394;-75
2023/11/09 00:48:02;;;;;;;7.65;2.22;;;;;;;8.85;100.00;100145.16;4995447;28;20121;-76
2023/11/09 00:50:28;;;;;;;4.00;2.28;;;;;;;8.77;100.00;100147.72;4994791;28;20391;-75
2023/11/09 00:52:53;;;;;;;4.43;1.42;;;;;;;8.67;100.00;100150.38;4995010;28;20038;-75
2023/11/09 00:55:19;;;;;;;8.55;1.70;;;;;;;8.61;100.00;100151.81;4995180;28;20113;-75
2023/11/09 00:57:44;;;;;;;3.75;1.42;;;;;;;8.56;100.00;100154.03;4995263;28;20034;-75
2023/11/09 01:00:10;;;;;;;8.25;1.60;;;;;;;8.52;100.00;100159.78;4994378;28;20475;-75
2023/11/09 01:02:38;;;;;;;6.50;1.50;;;;;;;8.48;100.00;100161.88;4994499;28;20047;-76
2023/11/09 01:05:06;;;;;;;5.53;1.30;;;;;;;8.46;100.00;100169.97;4994922;28;20038;-75
2023/11/09 01:07:31;;;;;;;5.63;2.03;;;;;;;8.43;100.00;100166.72;4994554;28;20165;-77
2023/11/09 01:09:57;;;;;;;6.55;1.33;;;;;;;8.41;100.00;100174.81;4994255;28;20054;-77
2023/11/09 01:12:22;;;;;;;9.65;1.77;;;;;;;8.39;100.00;100162.69;4994910;28;20117;-76
2023/11/09 01:14:48;;;;;;;5.03;1.40;;;;;;;8.38;100.00;100168.97;4993313;28;20116;-77
2023/11/09 01:17:13;;;;;;;4.60;1.55;;;;;;;8.37;100.00;100167.31;4994322;28;20034;-77
2023/11/09 01:19:38;;;;;;;2.25;1.15;;;;;;;8.34;100.00;100168.41;4993069;28;20030;-77
2023/11/09 01:22:04;;;;;;;5.72;1.23;;;;;;;8.34;100.00;100171.06;4993151;28;20422;-76
2023/11/09 01:24:29;;;;;;;6.85;1.63;;;;;;;8.35;100.00;100166.63;4994130;28;20046;-77
2023/11/09 01:26:55;;;;;;;6.10;1.60;;;;;;;8.34;100.00;100170.22;4994480;28;20034;-78
2023/11/09 01:29:21;;;;;;;4.10;1.30;;;;;;;8.32;100.00;100154.47;4993913;28;20229;-77
2023/11/09 01:31:48;;;;;;;6.05;1.52;;;;;;;8.33;100.00;100123.50;4994043;28;20070;-77
2023/11/09 01:34:13;;;;;;;3.33;1.30;;;;;;;8.32;100.00;100090.84;4994122;28;20064;-77
2023/11/09 01:36:39;;;;;;;5.30;1.55;;;;;;;8.32;100.00;100061.69;4994178;28;20034;-77
2023/11/09 01:39:05;;;;;;;6.13;1.30;;;;;;;8.28;100.00;100057.66;4994217;28;20487;-77
2023/11/09 01:41:30;;;;;;;8.95;1.42;;;;;;;8.24;100.00;100053.63;4992750;28;20085;-76
2023/11/09 01:43:57;;;;;;;5.50;1.20;;;;;;;8.19;100.00;100053.22;4994347;28;20062;-77
2023/11/09 01:46:24;;;;;;;9.73;1.35;;;;;;;8.12;100.00;100066.19;4993725;28;20034;-77
2023/11/09 01:48:51;;;;;;;2.65;1.20;;;;;;;8.06;100.00;100090.59;4992849;28;20062;-76
2023/11/09 01:51:19;;;;;;;7.38;1.38;;;;;;;8.01;100.00;100119.34;4994120;28;20463;-76
2023/11/09 01:53:45;;;;;;;8.32;1.83;;;;;;;7.99;100.00;100138.03;4994199;28;20038;-76
2023/11/09 01:56:14;;;;;;;4.40;1.38;;;;;;;8.02;100.00;100147.53;4994457;28;20027;-76
2023/11/09 01:58:40;;;;;;;5.38;1.63;;;;;;;8.06;100.00;100143.59;4992407;28;20034;-76
2023/11/09 02:01:10;;;;;;;4.57;1.80;;;;;;;8.06;100.00;100152.41;4993723;28;20084;-76
2023/11/09 02:03:36;;;;;;;6.43;1.35;;;;;;;8.09;100.00;100152.13;4993506;28;20047;-76
2023/11/09 02:06:02;;;;;;;7.90;1.95;;;;;;;8.11;100.00;100151.97;4993733;28;20033;-76
2023/11/09 02:08:28;;;;;;;5.30;1.45;;;;;;;8.13;100.00;100150.00;4993799;28;20031;-77
2023/11/09 02:10:54;;;;;;;4.20;1.73;;;;;;;8.14;100.00;100141.09;4993824;28;20088;-77
2023/11/09 02:13:19;;;;;;;7.15;1.90;;;;;;;8.17;100.00;100148.78;4993568;28;20046;-77
2023/11/09 02:15:44;;;;;;;5.32;1.70;;;;;;;8.18;100.00;100145.16;4993186;28;20066;-77
2023/11/09 02:18:10;;;;;;;3.58;1.80;;;;;;;8.19;100.00;100141.50;4993610;28;20140;-77
2023/11/09 02:20:36;;;;;;;7.47;1.90;;;;;;;8.19;100.00;100144.16;4992982;28;20034;-76
2023/11/09 02:23:03;;;;;;;7.90;2.20;;;;;;;8.18;100.00;100137.19;4993366;28;20048;-76
2023/11/09 02:25:29;;;;;;;7.43;1.90;;;;;;;8.17;100.00;100138.16;4993396;28;20034;-76
2023/11/09 02:27:54;;;;;;;8.63;1.90;;;;;;;8.16;100.00;100131.19;4993432;28;20026;-77
2023/11/09 02:30:21;;;;;;;7.63;1.83;;;;;;;8.14;100.00;100122.56;4993391;28;20041;-77
2023/11/09 02:32:46;;;;;;;9.38;2.08;;;;;;;8.15;100.00;100126.03;4993294;28;20470;-77
2023/11/09 02:35:11;;;;;;;11.63;2.28;;;;;;;8.15;100.00;100128.69;4993154;28;20031;-77
2023/11/09 02:37:37;;;;;;;11.80;2.47;;;;;;;8.14;100.00;100122.56;4991901;28;20320;-77
2023/11/09 02:40:04;;;;;;;6.88;1.92;;;;;;;8.12;100.00;100117.41;4992887;28;20463;-77
2023/11/09 02:42:29;;;;;;;6.53;1.90;;;;;;;8.15;100.00;100107.47;4993151;28;20479;-76
2023/11/09 02:44:55;;;;;;;5.68;2.10;;;;;;;8.15;100.00;100102.19;4991672;28;20041;-77
2023/11/09 02:47:20;;;;;;;14.25;2.42;;;;;;;8.12;100.00;100103.28;4992965;28;20034;-77
2023/11/09 02:49:45;;;;;;;5.93;2.47;;;;;;;8.14;100.00;100111.13;4993082;28;20027;-77
2023/11/09 02:52:11;;;;;;;7.53;2.08;;;;;;;8.13;100.00;100112.91;4993128;28;20097;-77
2023/11/09 02:54:37;;;;;;;10.05;2.33;;;;;;;8.12;100.00;100124.47;4993340;28;20066;-76
2023/11/09 02:57:03;;;;;;;11.02;2.20;;;;;;;8.12;100.00;100135.09;4992992;28;20034;-76
2023/11/09 02:59:28;;;;;;;10.23;2.28;;;;;;;8.11;100.00;100128.97;4993564;28;20038;-76
2023/11/09 03:01:56;;;;;;;9.52;2.50;;;;;;;8.11;100.00;100131.59;4992981;28;20375;-76
2023/11/09 03:04:22;;;;;;;9.68;2.50;;;;;;;8.10;100.00;100134.41;4992762;28;20034;-77
2023/11/09 03:06:48;;;;;;;9.63;2.45;;;;;;;8.09;100.00;100125.63;4993198;28;20184;-76
2023/11/09 03:09:14;;;;;;;14.45;2.33;;;;;;;8.07;100.00;100132.84;4993709;28;20542;-76
2023/11/09 03:11:39;;;;;;;13.73;2.25;;;;;;;8.07;100.00;100132.03;4992716;28;20406;-76
2023/11/09 03:14:05;;;;;;;10.15;2.72;;;;;;;8.07;100.00;100134.69;4993473;28;20039;-76
2023/11/09 03:16:31;;;;;;;14.43;2.70;;;;;;;8.06;100.00;100131.22;4993510;28;20034;-77
2023/11/09 03:18:56;;;;;;;13.50;2.65;;;;;;;8.08;100.00;100123.13;4991649;28;20427;-77
2023/11/09 03:21:22;;;;;;;20.02;3.20;;;;;;;8.08;100.00;100123.94;4991718;28;20064;-77
2023/11/09 03:23:49;;;;;;;10.80;2.53;;;;;;;8.07;100.00;100126.72;4993112;28;20041;-77
2023/11/09 03:26:15;;;;;;;16.92;2.67;;;;;;;8.07;100.00;100134.69;4992903;28;20049;-77
2023/11/09 03:28:40;;;;;;;10.13;3.53;;;;;;;8.05;100.00;100136.66;4993105;28;20410;-76
2023/11/09 03:31:06;;;;;;;24.60;3.22;;;;;;;8.05;100.00;100137.47;4992737;28;20525;-77
2023/11/09 03:33:32;;;;;;;16.25;2.85;;;;;;;8.05;100.00;100140.13;4994328;28;20038;-78
2023/11/09 03:35:57;;;;;;;17.92;3.38;;;;;;;8.05;100.00;100145.41;4996665;28;20030;-78
2023/11/09 03:38:23;;;;;;;20.00;3.05;;;;;;;8.01;100.00;100154.63;4996572;28;20038;-78
2023/11/09 03:40:48;;;;;;;19.73;3.08;;;;;;;8.03;100.00;100157.13;4996585;28;20099;-77
2023/11/09 03:43:15;;;;;;;25.55;3.17;;;;;;;7.99;100.00;100159.22;4995407;28;20049;-77
2023/11/09 03:45:40;;;;;;;19.98;3.88;;;;;;;7.98;100.00;100152.25;4996187;28;20044;-77
2023/11/09 03:48:06;;;;;;;14.43;2.83;;;;;;;7.97;100.00;100158.50;4996759;28;20026;-77
2023/11/09 03:50:31;;;;;;;15.88;2.70;;;;;;;7.96;100.00;100148.91;4996807;28;20358;-77
2023/11/09 03:52:56;;;;;;;22.98;3.08;;;;;;;7.94;100.00;100150.84;4996952;28;20116;-77
2023/11/09 03:55:22;;;;;;;25.70;3.38;;;;;;;7.93;100.00;100146.53;4996132;28;20026;-76
2023/11/09 03:57:47;;;;;;;14.88;3.70;;;;;;;7.90;100.00;100144.16;4995789;28;20035;-77
2023/11/09 04:00:13;;;;;;;21.33;3.55;;;;;;;7.89;100.00;100139.84;4996166;28;20030;-77
2023/11/09 04:02:42;;;;;;;23.20;3.40;;;;;;;7.87;100.00;100139.97;4994531;28;20047;-77
2023/11/09 04:05:13;;;;;;;23.40;3.22;;;;;;;7.84;100.00;100137.63;4996460;28;20068;-77
2023/11/09 04:07:41;;;;;;;23.55;3.28;;;;;;;7.84;100.00;100147.38;4995727;28;20451;-77
2023/11/09 04:10:09;;;;;;;14.48;3.20;;;;;;;7.83;100.00;100145.69;4995791;28;20026;-76
2023/11/09 04:12:35;;;;;;;21.88;3.72;;;;;;;7.81;100.00;100143.19;4995637;28;20035;-77
2023/11/09 04:15:01;;;;;;;21.20;3.47;;;;;;;7.77;100.00;100142.59;4995790;28;20096;-77
2023/11/09 04:17:27;;;;;;;19.70;3.85;;;;;;;7.72;100.00;100150.13;4994343;28;20054;-77
2023/11/09 04:19:52;;;;;;;26.25;3.28;;;;;;;7.69;100.00;100150.41;4995597;28;20088;-77
2023/11/09 04:22:18;;;;;;;22.35;3.10;;;;;;;7.65;100.00;100156.13;4995564;28;20026;-77
2023/11/09 04:24:43;;;;;;;23.55;2.92;;;;;;;7.60;100.00;100148.59;4995651;28;20039;-77
2023/11/09 04:27:08;;;;;;;26.02;3.95;;;;;;;7.60;100.00;100161.84;4995534;28;20062;-77
2023/11/09 04:29:34;;;;;;;16.15;3.40;;;;;;;7.60;100.00;100143.31;4995267;28;20177;-77
2023/11/09 04:32:00;;;;;;;19.17;3.75;;;;;;;7.61;100.00;100150.25;4995431;28;20470;-77
2023/11/09 04:34:25;;;;;;;29.73;4.25;;;;;;;7.62;100.00;100159.06;4995374;28;20034;-76
2023/11/09 04:36:52;;;;;;;26.70;4.55;;;;;;;7.63;100.00;100150.97;4995700;28;20466;-76
2023/11/09 04:39:31;;;;;;;24.23;3.78;;;;;;;7.65;100.00;100164.06;4994196;28;20125;-77
2023/11/09 04:41:58;;;;;;;27.65;3.67;;;;;;;7.66;100.00;100158.63;4994998;28;20394;-76
2023/11/09 04:44:24;;;;;;;22.15;4.00;;;;;;;7.68;100.00;100150.56;4994970;28;20037;-76
2023/11/09 04:46:52;;;;;;;17.58;3.60;;;;;;;7.65;100.00;100149.00;4995292;28;20065;-76
2023/11/09 04:49:20;;;;;;;22.45;3.97;;;;;;;7.64;100.00;100144.69;4996164;28;20042;-75
2023/11/09 04:51:48;;;;;;;20.13;3.47;;;;;;;7.61;100.00;100144.94;4995076;28;20050;-76
2023/11/09 04:54:24;;;;;;;24.88;4.15;;;;;;;7.62;100.00;100143.16;4995092;28;20069;-75
2023/11/09 04:56:53;;;;;;;21.15;3.90;;;;;;;7.58;100.00;100138.16;4993748;28;20038;-75
2023/11/09 05:07:24;;;;;;;18.85;4.22;;;;;;;7.49;100.00;100146.06;4995265;28;20065;-76
2023/11/09 05:09:50;;;;;;;28.23;4.30;;;;;;;7.46;100.00;100144.50;4994711;28;20178;-76
2023/11/09 05:12:17;;;;;;;31.95;4.80;;;;;;;7.43;100.00;100136.00;4995125;28;20074;-76
2023/11/09 05:14:42;;;;;;;19.10;3.85;;;;;;;7.40;100.00;100134.47;4994814;28;20034;-76
2023/11/09 05:17:14;;;;;;;28.75;5.10;;;;;;;7.37;100.00;100145.31;4995279;28;20473;-76
2023/11/09 05:19:41;;;;;;;26.15;5.25;;;;;;;7.32;100.00;100135.16;4994801;28;20076;-77
2023/11/09 05:22:08;;;;;;;36.03;5.55;;;;;;;7.26;100.00;100148.94;4994468;28;20117;-77
2023/11/09 05:24:35;;;;;;;28.60;4.60;;;;;;;7.19;100.00;100159.19;4994486;28;20037;-77
2023/11/09 05:27:02;;;;;;;21.23;4.40;;;;;;;7.14;100.00;100174.63;4994789;28;20053;-77
2023/11/09 05:29:27;;;;;;;17.90;4.40;;;;;;;7.11;100.00;100172.25;4994515;28;20041;-77
2023/11/09 05:31:52;;;;;;;27.33;5.10;;;;;;;7.08;100.00;100167.25;4994227;28;20034;-76
2023/11/09 05:34:18;;;;;;;22.35;4.85;;;;;;;7.05;100.00;100173.63;4993166;28;20046;-77
2023/11/09 05:36:43;;;;;;;27.35;5.45;;;;;;;7.03;100.00;100180.88;4994231;28;20109;-77
2023/11/09 05:39:10;;;;;;;32.72;5.57;;;;;;;7.01;100.00;100169.56;4992893;28;20063;-77
2023/11/09 05:41:36;;;;;;;33.78;5.47;;;;;;;6.99;100.00;100163.56;4993158;28;20057;-77
2023/11/09 05:44:02;;;;;;;29.10;6.10;;;;;;;6.99;100.00;100171.50;4994288;28;20030;-77
2023/11/09 05:46:28;;;;;;;27.33;5.72;;;;;;;6.96;100.00;100171.78;4993892;28;20182;-76
2023/11/09 05:48:53;;;;;;;21.55;5.53;;;;;;;6.94;100.00;100171.09;4993934;28;20117;-75
2023/11/09 05:51:21;;;;;;;21.45;5.25;;;;;;;6.90;100.00;100174.97;4993830;28;20041;-76
2023/11/09 05:53:53;;;;;;;29.67;5.70;;;;;;;6.92;100.00;100167.72;4993656;28;20121;-76
2023/11/09 05:56:23;;;;;;;36.25;5.30;;;;;;;6.92;100.00;100166.88;4991685;28;20078;-76
2023/11/09 05:58:48;;;;;;;27.73;5.80;;;;;;;6.89;100.00;100182.03;4994240;28;20441;-76
2023/11/09 06:01:14;;;;;;;20.98;5.50;;;;;;;6.84;100.00;100178.13;4993890;28;20105;-76
2023/11/09 06:03:39;;;;;;;20.05;5.30;;;;;;;6.78;100.00;100176.84;4994263;28;20059;-76
2023/11/09 06:06:05;;;;;;;25.38;5.82;;;;;;;6.71;100.00;100171.22;4993373;28;20030;-76
2023/11/09 06:08:31;;;;;;;23.70;5.20;;;;;;;6.61;100.00;100169.50;4994208;28;20110;-76
2023/11/09 06:10:57;;;;;;;23.30;4.75;;;;;;;6.51;100.00;100169.44;4993200;28;20433;-77
2023/11/09 06:13:23;;;;;;;30.33;5.40;;;;;;;6.42;100.00;100175.47;4992385;28;20052;-76
2023/11/09 06:15:49;;;;;;;24.42;4.90;;;;;;;6.31;100.00;100179.84;4993136;28;20030;-76
2023/11/09 06:18:14;;;;;;;28.63;5.68;;;;;;;6.23;100.00;100179.66;4993074;28;20463;-76
2023/11/09 06:20:41;;;;;;;30.73;4.80;;;;;;;6.18;100.00;100189.78;4993422;28;20089;-76
2023/11/09 06:23:07;;;;;;;24.75;4.80;;;;;;;6.12;100.00;100185.84;4992930;28;20038;-77
2023/11/09 06:25:32;;;;;;;34.83;5.78;;;;;;;6.07;100.00;100182.72;4993365;28;20122;-77
2023/11/09 06:27:57;;;;;;;29.63;4.95;;;;;;;5.98;100.00;100178.22;4993301;28;20058;-77
2023/11/09 06:30:23;;;;;;;35.05;5.63;;;;;;;5.91;100.00;100183.13;4993495;28;20037;-78
2023/11/09 06:32:48;;;;;;;35.90;5.38;;;;;;;5.81;100.00;100176.91;4993600;28;20129;-78
2023/11/09 06:35:17;;;;;;;23.33;4.55;;;;;;;5.70;100.00;100177.75;4993670;28;20050;-76
2023/11/09 06:37:45;;;;;;;26.70;5.43;;;;;;;5.58;100.00;100184.03;4993181;28;20035;-77
2023/11/09 06:40:12;;;;;;;30.90;4.88;;;;;;;5.50;100.00;100184.66;4993162;28;20159;-77
2023/11/09 06:42:38;;;;;;;34.90;4.45;;;;;;;5.43;100.00;100186.97;4993332;28;20066;-77
2023/11/09 06:45:05;;;;;;;38.55;5.88;;;;;;;5.39;100.00;100193.44;4992700;28;20079;-77
2023/11/09 06:47:31;;;;;;;27.73;4.82;;;;;;;5.36;100.00;100195.44;4992887;28;20466;-76
2023/11/09 06:49:56;;;;;;;32.20;4.70;;;;;;;5.34;100.00;100197.38;4992938;28;20057;-77
2023/11/09 06:52:21;;;;;;;26.58;4.15;;;;;;;5.33;100.00;100201.84;4992542;28;20529;-77
2023/11/09 06:54:47;;;;;;;22.95;4.80;;;;;;;5.36;100.00;100203.38;4992282;28;20141;-77
2023/11/09 06:57:13;;;;;;;28.95;4.97;;;;;;;5.41;100.00;100202.03;4992148;28;20058;-79
2023/11/09 06:59:38;;;;;;;32.35;5.15;;;;;;;5.47;100.00;100203.38;4993019;28;20034;-77
2023/11/09 07:02:06;;;;;;;44.88;6.38;;;;;;;5.50;100.00;100204.94;4992418;28;20137;-77
2023/11/09 07:04:32;;;;;;;34.13;5.43;;;;;;;5.48;100.00;100195.34;4991197;28;20415;-79
2023/11/09 07:06:57;;;;;;;24.23;5.00;;;;;;;5.46;100.00;100207.81;4994219;28;20089;-76
2023/11/09 07:09:23;;;;;;;42.80;5.95;;;;;;;5.44;100.00;100204.44;4999389;28;20401;-76
2023/11/09 07:11:52;;;;;;;29.88;5.40;;;;;;;5.42;100.00;100210.78;4998945;28;20121;-76
2023/11/09 07:14:23;;;;;;;30.75;4.95;;;;;;;5.42;100.00;100210.78;4999402;28;20125;-76
2023/11/09 07:16:53;;;;;;;31.55;6.05;;;;;;;5.45;100.00;100208.78;4999221;28;20057;-78
2023/11/09 07:19:20;;;;;;;24.05;4.97;;;;;;;5.55;100.00;100221.22;4998866;28;20040;-78
2023/11/09 07:21:45;;;;;;;31.98;5.47;;;;;;;5.59;100.00;100212.94;4998915;28;20131;-75
2023/11/09 07:24:13;;;;;;;45.45;6.30;;;;;;;5.64;100.00;100218.72;4998807;28;20125;-76
2023/11/09 07:26:39;;;;;;;26.75;5.57;;;;;;;5.68;100.00;100213.19;4999024;28;20026;-76
2023/11/09 07:29:04;;;;;;;28.77;5.63;;;;;;;5.69;100.00;100213.06;4998884;28;20041;-76
2023/11/09 07:31:30;;;;;;;48.70;6.07;;;;;;;5.70;100.00;100211.25;4999162;28;20030;-77
2023/11/09 07:33:55;;;;;;;29.60;5.40;;;;;;;5.74;100.00;100220.59;4998970;28;20092;-78
2023/11/09 07:36:20;;;;;;;30.80;5.10;;;;;;;5.79;100.00;100216.66;4999458;28;20037;-77
2023/11/09 07:38:46;;;;;;;30.77;5.13;;;;;;;5.85;100.00;100217.94;4999441;28;20080;-77
2023/11/09 07:41:11;;;;;;;31.38;4.95;;;;;;;5.92;100.00;100220.94;4999372;28;20117;-77
2023/11/09 07:43:37;;;;;;;27.73;5.22;;;;;;;5.97;100.00;100214.34;4997941;28;20030;-77
2023/11/09 07:46:03;;;;;;;37.50;5.38;;;;;;;6.04;100.00;100224.41;4999085;28;20037;-78
2023/11/09 07:48:28;;;;;;;38.10;5.82;;;;;;;6.11;100.00;100221.13;4997885;28;20523;-77
2023/11/09 07:50:54;;;;;;;27.95;4.88;;;;;;;6.16;100.00;100221.59;4997797;28;20137;-77
2023/11/09 07:53:20;;;;;;;33.90;5.20;;;;;;;6.27;100.00;100228.66;4998607;28;20092;-77
2023/11/09 07:55:48;;;;;;;38.33;7.15;;;;;;;6.33;100.00;100232.59;4998675;28;20363;-77
2023/11/09 07:58:18;;;;;;;24.20;4.78;;;;;;;6.38;100.00;100226.94;4998342;28;20045;-78
2023/11/09 08:00:43;;;;;;;21.95;4.53;;;;;;;6.43;100.00;100225.56;4998258;28;20047;-78
2023/11/09 08:03:09;;;;;;;25.75;4.05;;;;;;;6.50;100.00;100223.25;4998332;28;20046;-78
2023/11/09 08:05:40;;;;;;;34.47;4.85;;;;;;;6.52;100.00;100211.59;4998437;28;20088;-77
2023/11/09 08:08:14;;;;;;;23.77;4.40;;;;;;;6.57;100.00;100210.38;4998672;28;20037;-79
2023/11/09 08:10:43;;;;;;;34.80;4.13;;;;;;;6.62;100.00;100214.31;4998386;28;20072;-79
2023/11/09 08:13:08;;;;;;;26.45;4.45;;;;;;;6.66;100.00;100217.53;4998016;28;20109;-78
2023/11/09 08:15:35;;;;;;;41.42;4.78;;;;;;;6.73;100.00;100217.84;4998272;28;20065;-79
2023/11/09 08:18:02;;;;;;;38.90;4.28;;;;;;;6.82;100.00;100217.06;4998071;28;20134;-78
2023/11/09 08:20:29;;;;;;;29.33;4.47;;;;;;;6.95;100.00;100211.59;4993938;28;20042;-79
2023/11/09 08:22:56;;;;;;;16.75;3.38;;;;;;;7.03;100.00;100217.91;4995144;28;20446;-78
2023/11/09 08:25:23;;;;;;;30.77;4.95;;;;;;;7.16;100.00;100219.47;4995572;28;20104;-76
2023/11/09 08:27:51;;;;;;;21.85;4.45;;;;;;;7.26;100.00;100222.19;4995115;28;20521;-77
2023/11/09 08:30:19;;;;;;;33.30;4.10;;;;;;;7.32;100.00;100219.84;4995282;28;20367;-78
2023/11/09 08:32:48;;;;;;;18.20;3.67;;;;;;;7.43;100.00;100216.25;4995340;28;20038;-84
2023/11/09 08:35:13;;;;;;;25.35;4.03;;;;;;;7.46;100.00;100218.63;4994968;28;20406;-86
2023/11/09 08:37:43;;;;;;;27.23;3.83;;;;;;;7.57;100.00;100212.41;4996026;28;20037;-84
2023/11/09 08:40:17;;;;;;;21.23;4.43;;;;;;;7.67;100.00;100215.06;4995918;28;20048;-81
2023/11/09 08:42:48;;;;;;;24.90;3.55;;;;;;;7.69;100.00;100216.63;4995740;28;20023;-84
2023/11/09 08:45:13;;;;;;;20.88;3.92;;;;;;;7.75;100.00;100207.31;4995824;28;20073;-85
2023/11/09 08:47:39;;;;;;;27.13;3.65;;;;;;;7.84;100.00;100208.28;4996121;28;20442;-85
2023/11/09 08:50:05;;;;;;;22.00;3.85;;;;;;;7.85;100.00;100209.94;4995966;28;20035;-82
2023/11/09 08:52:31;;;;;;;26.25;3.40;;;;;;;7.90;100.00;100210.41;4996318;28;20065;-85
2023/11/09 08:54:57;;;;;;;29.25;4.10;;;;;;;7.90;100.00;100211.22;4994476;28;20035;-84
2023/11/09 08:57:23;;;;;;;20.55;3.05;;;;;;;7.92;100.00;100216.38;4995622;28;20030;-84
2023/11/09 08:59:50;;;;;;;32.92;4.20;;;;;;;8.00;100.00;100202.44;4995995;28;20030;-83
2023/11/09 09:02:17;;;;;;;35.40;3.80;;;;;;;8.08;100.00;100207.91;4995585;28;20050;-83
2023/11/09 09:04:42;;;;;;;23.38;3.67;;;;;;;8.11;100.00;100207.63;4995582;28;20037;-83
2023/11/09 09:07:08;;;;;;;22.88;3.47;;;;;;;8.06;100.00;100200.09;4995516;28;20038;-84
2023/11/09 09:09:33;;;;;;;26.20;3.33;;;;;;;8.12;100.00;100199.53;4995485;28;20359;-81
2023/11/09 09:12:00;;;;;;;21.95;3.17;;;;;;;8.14;100.00;100202.03;4995504;28;20058;-81
2023/11/09 09:14:25;;;;;;;26.48;3.72;;;;;;;8.22;100.00;100193.41;4995445;28;20152;-80
2023/11/09 09:16:50;;;;;;;16.20;3.25;;;;;;;8.40;100.00;100193.53;4995659;28;20495;-82
2023/11/09 09:19:17;;;;;;;19.08;3.17;;;;;;;8.51;100.00;100195.22;4995281;28;20451;-84
2023/11/09 09:21:43;;;;;;;27.67;3.35;;;;;;;8.68;100.00;100178.59;4995945;28;20129;-82
2023/11/09 09:24:09;;;;;;;22.45;3.40;;;;;;;8.83;100.00;100179.78;4994975;28;20113;-82
2023/11/09 09:26:34;;;;;;;18.85;3.55;;;;;;;8.97;100.00;100173.22;4995133;28;20070;-80
2023/11/09 09:29:01;;;;;;;24.25;4.38;;;;;;;9.09;100.00;100170.34;4994990;28;20472;-81
2023/11/09 09:31:28;;;;;;;15.45;3.95;;;;;;;9.10;100.00;100158.78;4995241;28;20412;-84
2023/11/09 09:34:10;;;;;;;13.90;2.90;;;;;;;9.25;100.00;100157.28;4994972;28;20034;-83
2023/11/09 09:36:38;;;;;;;16.95;3.00;;;;;;;9.27;100.00;100158.00;4994056;28;20121;-81
2023/11/09 09:39:04;;;;;;;17.13;3.00;;;;;;;9.28;100.00;100146.38;4995154;28;20097;-84
2023/11/09 09:41:40;;;;;;;20.33;3.78;;;;;;;9.33;100.00;100159.22;4994692;28;20061;-84
2023/11/09 09:44:12;;;;;;;14.65;3.33;;;;;;;9.35;100.00;100158.09;4994983;28;20030;-86
2023/11/09 09:46:39;;;;;;;17.35;3.30;;;;;;;9.34;100.00;100167.06;4995151;28;20023;-85
2023/11/09 09:49:08;;;;;;;17.95;3.25;;;;;;;9.37;100.00;100167.72;4995018;28;20038;-86
2023/11/09 09:51:36;;;;;;;11.85;2.90;;;;;;;9.34;100.00;100175.03;4993066;28;20467;-88
2023/11/09 09:54:02;;;;;;;22.40;3.50;;;;;;;9.33;100.00;100173.34;4994640;28;20109;-88
2023/11/09 09:56:29;;;;;;;24.48;3.10;;;;;;;9.32;100.00;100176.16;4994661;28;20092;-86
2023/11/09 09:58:56;;;;;;;20.90;4.03;;;;;;;9.31;100.00;100177.94;4994662;28;20030;-84
2023/11/09 10:01:22;;;;;;;20.42;4.00;;;;;;;9.24;100.00;100182.19;4994281;28;20096;-86
2023/11/09 10:03:49;;;;;;;21.52;3.22;;;;;;;9.27;100.00;100181.03;4993980;28;20479;-86
2023/11/09 10:06:19;;;;;;;20.38;3.08;;;;;;;9.21;100.00;100173.66;4994318;28;20042;-83
2023/11/09 10:08:45;;;;;;;13.25;3.15;;;;;;;9.22;100.00;100175.34;4994239;28;20080;-84
2023/11/09 10:11:15;;;;;;;19.70;3.72;;;;;;;9.31;100.00;100174.47;4994327;28;20034;-82
2023/11/09 10:13:45;;;;;;;21.40;3.03;;;;;;;9.38;100.00;100172.06;4993239;28;20037;-84
2023/11/09 10:16:14;;;;;;;20.02;3.88;;;;;;;9.30;100.00;100173.63;4994796;28;20157;-86
2023/11/09 10:18:39;;;;;;;15.38;3.03;;;;;;;9.35;100.00;100170.53;5009161;28;20089;-83
2023/11/09 10:21:06;;;;;;;11.20;2.72;;;;;;;9.45;100.00;100175.78;4994526;28;20480;-86
2023/11/09 10:23:32;;;;;;;20.63;3.42;;;;;;;9.46;100.00;100183.59;4993606;28;20042;-84
2023/11/09 10:26:03;;;;;;;23.80;3.20;;;;;;;9.64;100.00;100181.00;4993859;28;20026;-83
2023/11/09 10:28:29;;;;;;;;;;;;;;;9.62;100.00;100176.81;4994631;28;20030;-83
2023/11/09 10:30:55;;;;;;;18.77;3.20;;;;;;;9.49;100.00;100170.06;4993980;28;19914;-81
2023/11/09 10:33:22;;;;;;;15.38;2.63;;;;;;;9.41;100.00;100175.25;4993826;28;20038;-82
2023/11/09 10:35:48;;;;;;;16.58;2.80;;;;;;;9.31;100.00;100164.66;4993945;28;20035;-83
2023/11/09 10:38:20;;;;;;;18.63;3.20;;;;;;;9.17;100.00;100158.03;4993896;28;20466;-83
2023/11/09 10:40:47;;;;;;;23.20;3.83;;;;;;;9.03;100.00;100160.34;4994207;28;20037;-86
2023/11/09 10:43:14;;;;;;;15.02;3.92;;;;;;;9.02;100.00;100150.69;4993914;28;20036;-84
2023/11/09 10:45:44;;;;;;;23.15;4.00;;;;;;;9.02;100.00;100145.38;4994003;28;20031;-83
2023/11/09 10:48:17;;;;;;;21.35;3.45;;;;;;;9.13;100.00;100148.69;4993810;28;20034;-83
2023/11/09 10:50:49;;;;;;;13.93;2.90;;;;;;;9.32;100.00;100136.31;4993338;28;20494;-84
2023/11/09 10:53:19;;;;;;;13.45;3.15;;;;;;;9.44;100.00;100134.31;4994521;28;20076;-82
2023/11/09 10:55:49;;;;;;;18.73;2.97;;;;;;;9.44;100.00;100131.66;4994451;28;20398;-80
2023/11/09 10:58:20;;;;;;;17.42;2.90;;;;;;;9.49;100.00;100126.72;4994505;28;20089;-83
2023/11/09 11:00:59;;;;;;;15.65;2.75;;;;;;;9.34;100.00;100119.28;4994063;28;20085;-82
2023/11/09 11:03:43;;;;;;;14.73;2.70;;;;;;;9.28;100.00;100119.00;4994654;28;20050;-81
2023/11/09 11:06:12;;;;;;;20.15;3.40;;;;;;;9.25;100.00;100112.16;4992851;28;20022;-84
2023/11/09 11:08:41;;;;;;;23.38;3.58;;;;;;;9.24;100.00;100110.53;4993529;28;20088;-85
2023/11/09 11:11:11;;;;;;;21.63;3.63;;;;;;;9.13;100.00;100111.53;4993598;28;20040;-85
2023/11/09 11:13:43;;;;;;;13.27;2.80;;;;;;;9.20;100.00;100095.88;4992612;28;20041;-81
2023/11/09 11:16:16;;;;;;;16.92;3.60;;;;;;;9.04;100.00;100088.53;4993551;28;20026;-84
2023/11/09 11:18:53;;;;;;;25.25;2.70;;;;;;;8.95;100.00;100074.34;4993288;28;20072;-84
2023/11/09 11:21:45;;;;;;;12.88;2.70;;;;;;;8.85;100.00;100062.94;4993757;28;20037;-83
2023/11/09 11:24:55;;;;;;;15.57;3.42;;;;;;;8.95;100.00;100065.53;4993894;28;20070;-84
2023/11/09 11:27:51;;;;;;;18.60;2.30;;;;;;;8.89;100.00;100064.31;4984753;28;20049;-83